logo
Search for airport 
image banner adimage banner adimage banner ad
image banner ad

EHKS - K15-Fb-1 (Oil Platform)

Located in , Netherlands

ICAO - , IATA -

Data provided by Airmate  

General information

Coordinates: N53°16'32" E3°52'18"
Elevation is feet MSL.
 
View others Airports in Noord-Holland

Operational data

Special qualification required
Current time UTC:
Current local time:
Weather at : EHKV - K14-Fa-1C (Oil Platform) ( 16 km )
METAR: EHKV 241825Z AUTO 35010KT 9999 -RA SCT016 13/10 Q1020 RERA REDZ
View NOTAMs / SUP AIP / TFR affecting this airport [VIEW]
Communications frequencies: [VIEW]

Runways:

Airport contact information

Address: Netherlands

Satellite view of EHKS